createdAt,value
2023-06-17T00:02:16.648Z,1.88
2023-06-17T00:04:48.606Z,2.10
2023-06-17T00:07:20.371Z,1.65
2023-06-17T00:09:51.955Z,2.10
2023-06-17T00:12:25.516Z,2.50
2023-06-17T00:14:58.394Z,2.22
2023-06-17T00:17:33.564Z,2.60
2023-06-17T00:20:13.383Z,1.70
2023-06-17T00:22:45.845Z,2.13
2023-06-17T00:25:17.530Z,1.88
2023-06-17T00:27:49.129Z,1.98
2023-06-17T00:30:20.999Z,1.70
2023-06-17T00:32:52.973Z,5.20
2023-06-17T00:35:24.588Z,1.75
2023-06-17T00:37:56.198Z,1.90
2023-06-17T00:40:28.142Z,3.55
2023-06-17T00:43:00.175Z,1.48
2023-06-17T00:45:39.739Z,1.83
2023-06-17T00:48:12.363Z,2.72
2023-06-17T00:50:46.571Z,2.60
2023-06-17T00:53:18.556Z,2.00
2023-06-17T00:55:51.011Z,2.03
2023-06-17T00:58:23.650Z,4.20
2023-06-17T01:00:55.365Z,2.25
2023-06-17T01:03:27.088Z,2.28
2023-06-17T01:06:04.483Z,2.17
2023-06-17T01:08:45.725Z,5.10
2023-06-17T01:11:21.355Z,2.22
2023-06-17T01:13:57.326Z,2.22
2023-06-17T01:16:33.199Z,2.17
2023-06-17T01:19:07.049Z,2.50
2023-06-17T01:21:39.769Z,3.30
2023-06-17T01:24:14.136Z,4.18
2023-06-17T01:26:45.746Z,2.25
2023-06-17T01:29:17.487Z,1.67
2023-06-17T01:31:50.807Z,2.03
2023-06-17T01:34:45.470Z,2.78
2023-06-17T01:37:27.235Z,2.30
2023-06-17T01:40:01.890Z,3.28
2023-06-17T01:42:37.765Z,2.00
2023-06-17T01:45:10.566Z,2.63
2023-06-17T01:47:43.333Z,2.58
2023-06-17T01:50:20.281Z,2.65
2023-06-17T01:52:52.616Z,1.70
2023-06-17T01:55:24.300Z,1.90
2023-06-17T01:57:55.998Z,1.92
2023-06-17T02:00:27.793Z,2.33
2023-06-17T02:02:59.543Z,4.18
2023-06-17T02:05:31.187Z,2.30
2023-06-17T02:08:05.758Z,2.20
2023-06-17T02:10:37.362Z,2.63
2023-06-17T02:13:11.718Z,1.90
2023-06-17T02:15:44.102Z,2.05
2023-06-17T02:18:15.860Z,2.08
2023-06-17T02:20:47.817Z,2.28
2023-06-17T02:23:19.703Z,1.65
2023-06-17T02:25:52.076Z,2.70
2023-06-17T02:28:23.720Z,2.08
2023-06-17T02:30:55.915Z,1.98
2023-06-17T02:33:27.674Z,2.05
2023-06-17T02:35:59.263Z,2.13
2023-06-17T02:38:31.304Z,2.03
2023-06-17T02:41:02.875Z,2.47
2023-06-17T02:43:34.522Z,2.55
2023-06-17T02:46:06.372Z,2.58
2023-06-17T02:48:38.044Z,2.40
2023-06-17T02:51:10.568Z,2.83
2023-06-17T02:53:42.313Z,3.22
2023-06-17T02:56:13.943Z,2.95
2023-06-17T02:58:46.863Z,2.35
2023-06-17T03:01:19.354Z,2.58
2023-06-17T03:03:56.123Z,2.83
2023-06-17T03:06:27.895Z,2.95
2023-06-17T03:08:59.509Z,3.13
2023-06-17T03:11:31.299Z,2.78
2023-06-17T03:14:03.960Z,3.10
2023-06-17T03:16:35.952Z,2.45
2023-06-17T03:19:08.034Z,2.58
2023-06-17T03:21:42.185Z,2.95
2023-06-17T03:24:13.860Z,2.85
2023-06-17T03:26:46.364Z,2.92
2023-06-17T03:29:18.043Z,2.55
2023-06-17T03:31:49.728Z,2.83
2023-06-17T03:34:21.707Z,5.28
2023-06-17T03:36:53.799Z,2.33
2023-06-17T03:39:25.464Z,2.83
2023-06-17T03:41:57.103Z,2.53
2023-06-17T03:44:28.745Z,3.65
2023-06-17T03:47:00.971Z,3.17
2023-06-17T03:49:32.712Z,2.63
2023-06-17T03:52:04.793Z,3.03
2023-06-17T03:54:36.475Z,4.55
2023-06-17T03:57:08.154Z,2.45
2023-06-17T03:59:39.815Z,2.63
2023-06-17T04:02:12.593Z,2.63
2023-06-17T04:04:44.504Z,3.13
2023-06-17T04:07:16.252Z,2.65
2023-06-17T04:09:57.993Z,2.90
2023-06-17T04:12:38.942Z,2.45
2023-06-17T04:15:10.719Z,2.78
2023-06-17T04:17:42.403Z,2.85
2023-06-17T04:20:14.153Z,2.83
2023-06-17T04:22:46.025Z,3.30
2023-06-17T04:25:21.854Z,3.17
2023-06-17T04:27:54.854Z,2.53
2023-06-17T04:30:26.650Z,3.08
2023-06-17T04:33:01.344Z,4.88
2023-06-17T04:35:33.169Z,3.00
2023-06-17T04:38:05.492Z,3.38
2023-06-17T04:40:37.952Z,4.72
2023-06-17T04:43:11.008Z,2.83
2023-06-17T04:45:43.032Z,2.53
2023-06-17T04:48:15.697Z,3.25
2023-06-17T04:50:48.982Z,3.22
2023-06-17T04:53:20.567Z,2.55
2023-06-17T04:55:52.588Z,4.85
2023-06-17T04:58:24.231Z,2.83
2023-06-17T05:00:55.831Z,3.15
2023-06-17T05:03:27.472Z,2.60
2023-06-17T05:05:59.061Z,2.63
2023-06-17T05:08:30.683Z,3.22
2023-06-17T05:11:02.234Z,3.40
2023-06-17T05:13:33.839Z,2.80
2023-06-17T05:16:05.871Z,2.97
2023-06-17T05:18:37.452Z,2.60
2023-06-17T05:21:09.230Z,2.72
2023-06-17T05:23:40.846Z,2.55
2023-06-17T05:26:12.508Z,3.92
2023-06-17T05:28:44.640Z,3.42
2023-06-17T05:31:16.464Z,3.50
2023-06-17T05:33:48.158Z,3.03
2023-06-17T05:36:19.816Z,2.35
2023-06-17T05:38:51.964Z,2.67
2023-06-17T05:41:23.578Z,3.58
2023-06-17T05:43:55.202Z,2.83
2023-06-17T05:46:26.830Z,2.80
2023-06-17T05:48:58.575Z,2.65
2023-06-17T05:51:30.216Z,3.63
2023-06-17T05:54:01.891Z,2.92
2023-06-17T05:56:33.653Z,3.85
2023-06-17T05:59:05.236Z,2.92
2023-06-17T06:01:36.875Z,2.97
2023-06-17T06:04:08.612Z,2.65
2023-06-17T06:06:40.293Z,3.30
2023-06-17T06:09:12.188Z,3.95
2023-06-17T06:11:43.835Z,3.38
2023-06-17T06:14:18.806Z,3.78
2023-06-17T06:16:51.184Z,2.70
2023-06-17T06:19:22.871Z,3.35
2023-06-17T06:21:54.509Z,3.60
2023-06-17T06:24:26.117Z,3.58
2023-06-17T06:26:57.926Z,3.63
2023-06-17T06:29:29.481Z,4.63
2023-06-17T06:32:01.892Z,3.65
2023-06-17T06:34:34.081Z,3.28
2023-06-17T06:37:06.157Z,3.70
2023-06-17T06:39:37.729Z,4.03
2023-06-17T06:42:09.757Z,4.15
2023-06-17T06:44:41.362Z,3.80
2023-06-17T06:47:12.971Z,4.55
2023-06-17T06:49:44.724Z,4.93
2023-06-17T06:52:16.495Z,5.00
2023-06-17T06:54:48.226Z,5.18
2023-06-17T06:57:19.939Z,7.70
2023-06-17T06:59:52.740Z,4.63
2023-06-17T07:02:24.469Z,4.45
2023-06-17T07:04:56.200Z,5.63
2023-06-17T07:07:27.940Z,5.78
2023-06-17T07:09:59.890Z,5.32
2023-06-17T07:12:31.688Z,4.90
2023-06-17T07:15:03.699Z,8.40
2023-06-17T07:17:35.309Z,5.97
2023-06-17T07:20:07.731Z,5.55
2023-06-17T07:22:39.366Z,5.18
2023-06-17T07:25:11.085Z,6.28
2023-06-17T07:27:42.790Z,5.65
2023-06-17T07:30:14.623Z,6.03
2023-06-17T07:32:46.372Z,7.35
2023-06-17T07:35:18.572Z,7.53
2023-06-17T07:37:53.118Z,6.75
2023-06-17T07:40:24.728Z,7.05
2023-06-17T07:42:56.505Z,7.43
2023-06-17T07:45:28.310Z,9.20
2023-06-17T07:48:00.265Z,10.30
2023-06-17T07:50:31.920Z,6.22
2023-06-17T07:53:03.583Z,5.95
2023-06-17T07:55:35.439Z,7.93
2023-06-17T07:58:07.113Z,8.18
2023-06-17T08:00:38.820Z,7.88
2023-06-17T08:03:10.795Z,10.15
2023-06-17T08:05:42.514Z,7.72
2023-06-17T08:08:14.147Z,9.43
2023-06-17T08:10:46.029Z,11.35
2023-06-17T08:13:17.786Z,11.38
2023-06-17T08:15:51.111Z,10.85
2023-06-17T08:18:22.852Z,17.23
2023-06-17T08:20:54.532Z,8.85
2023-06-17T08:23:26.137Z,10.63
2023-06-17T08:25:58.046Z,12.18
2023-06-17T08:28:29.676Z,8.95
2023-06-17T08:31:01.532Z,8.43
2023-06-17T08:33:33.797Z,8.90
2023-06-17T08:36:05.802Z,15.13
2023-06-17T08:38:37.983Z,9.07
2023-06-17T08:41:09.570Z,11.82
2023-06-17T08:43:42.401Z,8.93
2023-06-17T08:46:15.546Z,13.05
2023-06-17T08:48:49.834Z,9.07
2023-06-17T08:53:53.661Z,9.07
2023-06-17T08:56:25.480Z,10.23
2023-06-17T08:58:57.881Z,10.88
2023-06-17T09:01:30.069Z,9.57
2023-06-17T09:04:02.581Z,7.97
2023-06-17T09:06:34.237Z,10.88
2023-06-17T09:09:06.597Z,9.70
2023-06-17T09:11:38.278Z,10.20
2023-06-17T09:14:10.037Z,11.50
2023-06-17T09:16:41.909Z,12.85
2023-06-17T09:19:14.874Z,11.38
2023-06-17T09:21:49.771Z,10.10
2023-06-17T09:24:31.131Z,19.40
2023-06-17T09:27:02.972Z,12.68
2023-06-17T09:29:37.797Z,8.95
2023-06-17T09:32:09.621Z,15.75
2023-06-17T09:34:49.266Z,13.13
2023-06-17T09:37:21.696Z,16.10
2023-06-17T09:39:53.410Z,18.50
2023-06-17T09:42:31.456Z,23.08
2023-06-17T09:45:08.610Z,17.77
2023-06-17T09:47:40.716Z,14.38
2023-06-17T09:50:13.183Z,16.58
2023-06-17T09:52:45.045Z,14.32
2023-06-17T09:55:16.965Z,11.27
2023-06-17T09:57:54.786Z,18.83
2023-06-17T10:00:28.421Z,15.32
2023-06-17T10:03:00.313Z,15.55
2023-06-17T10:05:32.072Z,13.90
2023-06-17T10:08:05.346Z,14.60
2023-06-17T10:10:37.786Z,16.65
2023-06-17T10:13:10.810Z,19.65
2023-06-17T10:15:42.909Z,24.92
2023-06-17T10:18:16.352Z,22.95
2023-06-17T10:20:51.916Z,23.20
2023-06-17T10:23:24.738Z,41.03
2023-06-17T10:25:56.421Z,24.17
2023-06-17T10:29:11.641Z,21.52
2023-06-17T10:31:44.458Z,30.48
2023-06-17T10:34:21.005Z,18.40
2023-06-17T10:37:01.959Z,26.63
2023-06-17T10:39:33.634Z,19.45
2023-06-17T10:42:14.389Z,22.20
2023-06-17T10:44:47.127Z,17.80
2023-06-17T10:47:23.783Z,16.98
2023-06-17T10:49:55.998Z,25.83
2023-06-17T10:52:30.359Z,25.90
2023-06-17T10:55:04.228Z,14.80
2023-06-17T10:57:37.312Z,23.85
2023-06-17T11:00:13.524Z,20.27
2023-06-17T11:02:45.253Z,18.38
2023-06-17T11:05:17.991Z,16.98
2023-06-17T11:07:50.436Z,23.00
2023-06-17T11:10:26.079Z,22.17
2023-06-17T11:12:58.505Z,22.00
2023-06-17T11:15:30.230Z,23.50
2023-06-17T11:18:05.593Z,22.20
2023-06-17T11:20:37.235Z,22.42
2023-06-17T11:23:08.831Z,26.98
2023-06-17T11:25:45.608Z,19.05
2023-06-17T11:28:17.779Z,23.75
2023-06-17T11:30:51.090Z,21.77
2023-06-17T11:33:24.607Z,25.50
2023-06-17T11:35:56.375Z,18.08
2023-06-17T11:38:28.250Z,21.63
2023-06-17T11:41:00.583Z,34.90
2023-06-17T11:43:32.831Z,18.10
2023-06-17T11:46:04.811Z,28.23
2023-06-17T11:48:36.887Z,23.02
2023-06-17T11:51:08.871Z,30.00
2023-06-17T11:53:40.630Z,18.48
2023-06-17T11:56:15.392Z,25.58
2023-06-17T11:58:47.371Z,17.77
2023-06-17T12:01:26.023Z,24.90
2023-06-17T12:03:58.076Z,15.77
2023-06-17T12:06:30.060Z,18.42
2023-06-17T12:09:05.378Z,20.45
2023-06-17T12:11:40.639Z,17.48
2023-06-17T12:14:13.976Z,23.90
2023-06-17T12:16:47.992Z,21.65
2023-06-17T12:19:25.426Z,26.02
2023-06-17T12:21:56.996Z,35.22
2023-06-17T12:24:28.772Z,20.60
2023-06-17T12:27:00.538Z,22.88
2023-06-17T12:29:32.265Z,34.63
2023-06-17T12:32:04.561Z,23.45
2023-06-17T12:34:36.283Z,18.42
2023-06-17T12:37:08.857Z,26.73
2023-06-17T12:39:41.274Z,19.15
2023-06-17T12:42:13.525Z,22.45
2023-06-17T12:44:45.970Z,17.52
2023-06-17T12:47:19.551Z,18.15
2023-06-17T12:49:51.339Z,17.00
2023-06-17T12:52:23.228Z,35.65
2023-06-17T12:55:02.488Z,22.70
2023-06-17T12:57:34.518Z,25.85
2023-06-17T13:00:07.580Z,22.00
2023-06-17T13:02:39.381Z,27.63
2023-06-17T13:05:11.432Z,16.80
2023-06-17T13:07:43.062Z,36.17
2023-06-17T13:10:14.618Z,37.97
2023-06-17T13:12:46.324Z,22.25
2023-06-17T13:15:18.252Z,29.67
2023-06-17T13:17:50.392Z,37.83
2023-06-17T13:20:22.928Z,26.92
2023-06-17T13:22:55.195Z,28.85
2023-06-17T13:25:27.577Z,30.67
2023-06-17T13:27:59.459Z,26.73
2023-06-17T13:30:31.040Z,36.25
2023-06-17T13:33:02.863Z,32.05
2023-06-17T13:35:34.622Z,25.17
2023-06-17T13:38:06.474Z,18.23
2023-06-17T13:40:38.100Z,31.60
2023-06-17T13:43:09.835Z,24.77
2023-06-17T13:45:41.581Z,19.85
2023-06-17T13:48:13.618Z,19.00
2023-06-17T13:50:45.301Z,34.13
2023-06-17T13:53:17.007Z,19.40
2023-06-17T13:55:49.801Z,17.98
2023-06-17T13:58:21.401Z,26.17
2023-06-17T14:00:53.625Z,26.13
2023-06-17T14:03:25.544Z,20.63
2023-06-17T14:05:57.464Z,14.75
2023-06-17T14:08:29.185Z,16.60
2023-06-17T14:11:00.885Z,27.90
2023-06-17T14:13:32.497Z,29.38
2023-06-17T14:16:04.205Z,17.35
2023-06-17T14:18:35.863Z,28.92
2023-06-17T14:21:08.044Z,22.70
2023-06-17T14:24:15.480Z,42.78
2023-06-17T14:26:47.151Z,28.92
2023-06-17T14:29:18.720Z,31.48
2023-06-17T14:31:50.319Z,13.30
2023-06-17T14:34:21.913Z,24.73
2023-06-17T14:36:53.608Z,21.83
2023-06-17T14:39:25.180Z,17.92
2023-06-17T14:41:56.952Z,32.03
2023-06-17T14:44:28.759Z,26.67
2023-06-17T14:47:00.456Z,10.75
2023-06-17T14:49:32.046Z,25.52
2023-06-17T14:52:03.903Z,25.85
2023-06-17T14:54:35.799Z,17.70
2023-06-17T14:57:07.780Z,22.25
2023-06-17T14:59:39.612Z,22.05
2023-06-17T15:02:25.572Z,19.27
2023-06-17T15:04:57.448Z,30.00
2023-06-17T15:07:29.084Z,30.58
2023-06-17T15:10:01.397Z,14.23
2023-06-17T15:12:33.448Z,13.25
2023-06-17T15:15:06.533Z,11.98
2023-06-17T15:17:38.545Z,14.68
2023-06-17T15:20:11.311Z,34.35
2023-06-17T15:22:42.968Z,28.95
2023-06-17T15:25:14.657Z,20.08
2023-06-17T15:27:46.455Z,13.57
2023-06-17T15:30:18.413Z,18.77
2023-06-17T15:32:52.849Z,13.20
2023-06-17T15:35:24.944Z,6.97
2023-06-17T15:37:56.979Z,10.70
2023-06-17T15:40:28.669Z,12.35
2023-06-17T15:43:00.340Z,6.57
2023-06-17T15:45:32.082Z,8.38
2023-06-17T15:48:04.034Z,5.50
2023-06-17T15:50:36.212Z,6.97
2023-06-17T15:53:07.788Z,7.05
2023-06-17T15:55:39.581Z,8.20
2023-06-17T15:58:11.194Z,7.28
2023-06-17T16:00:42.778Z,8.00
2023-06-17T16:03:26.395Z,8.18
2023-06-17T16:06:00.004Z,6.45
2023-06-17T16:08:31.771Z,5.97
2023-06-17T16:11:04.754Z,9.82
2023-06-17T16:13:38.610Z,6.15
2023-06-17T16:16:10.365Z,3.83
2023-06-17T16:18:42.044Z,5.47
2023-06-17T16:21:13.730Z,5.32
2023-06-17T16:23:45.380Z,6.68
2023-06-17T16:26:16.954Z,3.67
2023-06-17T16:28:48.635Z,3.75
2023-06-17T16:31:20.515Z,3.05
2023-06-17T16:33:52.108Z,3.60
2023-06-17T16:36:23.817Z,3.58
2023-06-17T16:38:55.711Z,3.13
2023-06-17T16:41:27.391Z,3.70
2023-06-17T16:43:59.031Z,5.05
2023-06-17T16:46:30.752Z,2.92
2023-06-17T16:49:02.519Z,4.20
2023-06-17T16:51:34.271Z,4.70
2023-06-17T16:54:06.762Z,5.88
2023-06-17T16:59:12.001Z,4.55
2023-06-17T17:01:43.815Z,3.15
2023-06-17T17:04:15.544Z,5.72
2023-06-17T17:06:47.155Z,4.30
2023-06-17T17:09:18.735Z,4.65
2023-06-17T17:11:50.378Z,4.50
2023-06-17T17:14:23.338Z,3.95
2023-06-17T17:16:55.072Z,3.33
2023-06-17T17:19:27.483Z,3.70
2023-06-17T17:21:59.057Z,5.57
2023-06-17T17:24:30.900Z,3.08
2023-06-17T17:27:02.686Z,4.82
2023-06-17T17:29:35.411Z,3.58
2023-06-17T17:32:07.443Z,4.32
2023-06-17T17:34:39.317Z,2.83
2023-06-17T17:37:10.953Z,3.00
2023-06-17T17:39:42.593Z,2.95
2023-06-17T17:42:14.817Z,4.63
2023-06-17T17:44:46.456Z,3.63
2023-06-17T17:47:18.182Z,2.22
2023-06-17T17:49:49.970Z,4.03
2023-06-17T17:52:21.966Z,2.30
2023-06-17T17:55:01.802Z,4.03
2023-06-17T17:57:34.740Z,2.70
2023-06-17T18:00:09.071Z,3.88
2023-06-17T18:02:40.890Z,3.78
2023-06-17T18:05:12.632Z,5.35
2023-06-17T18:07:44.309Z,4.55
2023-06-17T18:10:15.965Z,3.08
2023-06-17T18:12:47.665Z,2.85
2023-06-17T18:15:19.286Z,6.18
2023-06-17T18:17:50.986Z,3.30
2023-06-17T18:20:22.948Z,5.25
2023-06-17T18:22:54.700Z,3.17
2023-06-17T18:25:26.329Z,3.25
2023-06-17T18:27:57.908Z,3.78
2023-06-17T18:30:29.624Z,3.72
2023-06-17T18:33:01.734Z,3.25
2023-06-17T18:35:34.272Z,2.67
2023-06-17T18:38:07.926Z,2.67
2023-06-17T18:40:41.024Z,2.55
2023-06-17T18:43:13.789Z,3.00
2023-06-17T18:45:45.740Z,2.83
2023-06-17T18:48:17.415Z,2.30
2023-06-17T18:50:52.233Z,2.58
2023-06-17T18:53:23.985Z,2.53
2023-06-17T18:55:56.138Z,1.92
2023-06-17T18:58:27.805Z,2.38
2023-06-17T19:00:59.750Z,2.10
2023-06-17T19:03:31.977Z,1.80
2023-06-17T19:06:04.542Z,3.53
2023-06-17T19:08:36.277Z,2.67
2023-06-17T19:11:08.237Z,3.58
2023-06-17T19:13:39.949Z,2.90
2023-06-17T19:16:11.813Z,1.98
2023-06-17T19:18:43.618Z,1.55
2023-06-17T19:21:15.838Z,2.67
2023-06-17T19:23:47.559Z,2.35
2023-06-17T19:26:19.214Z,4.28
2023-06-17T19:28:51.982Z,1.73
2023-06-17T19:31:25.979Z,2.40
2023-06-17T19:33:57.609Z,12.80
2023-06-17T19:36:30.157Z,2.78
2023-06-17T19:39:02.037Z,2.05
2023-06-17T19:41:33.813Z,3.03
2023-06-17T19:44:07.707Z,2.45
2023-06-17T19:46:40.411Z,2.22
2023-06-17T19:49:12.046Z,1.70
2023-06-17T19:51:43.752Z,2.20
2023-06-17T19:54:16.483Z,4.03
2023-06-17T19:56:48.613Z,2.08
2023-06-17T19:59:21.363Z,2.53
2023-06-17T20:01:53.086Z,3.55
2023-06-17T20:04:24.807Z,3.03
2023-06-17T20:06:56.913Z,2.72
2023-06-17T20:09:31.657Z,2.92
2023-06-17T20:12:03.631Z,2.50
2023-06-17T20:14:35.770Z,2.53
2023-06-17T20:17:08.678Z,3.00
2023-06-17T20:19:40.547Z,2.80
2023-06-17T20:22:12.165Z,3.30
2023-06-17T20:24:43.814Z,3.10
2023-06-17T20:27:15.587Z,2.60
2023-06-17T20:29:47.939Z,3.67
2023-06-17T20:32:20.527Z,4.13
2023-06-17T20:34:52.479Z,3.13
2023-06-17T20:37:24.124Z,2.20
2023-06-17T20:39:56.052Z,2.53
2023-06-17T20:42:27.890Z,2.88
2023-06-17T20:44:59.571Z,5.13
2023-06-17T20:47:31.564Z,5.97
2023-06-17T20:50:03.940Z,6.50
2023-06-17T20:52:35.954Z,7.93
2023-06-17T20:55:08.398Z,8.13
2023-06-17T20:57:41.022Z,7.18
2023-06-17T21:00:13.778Z,5.72
2023-06-17T21:02:45.884Z,8.00
2023-06-17T21:05:17.707Z,4.93
2023-06-17T21:07:49.402Z,4.20
2023-06-17T21:10:21.288Z,4.53
2023-06-17T21:12:53.273Z,2.63
2023-06-17T21:15:24.966Z,3.85
2023-06-17T21:17:56.797Z,6.13
2023-06-17T21:20:28.426Z,3.88
2023-06-17T21:23:00.880Z,4.15
2023-06-17T21:25:32.475Z,3.78
2023-06-17T21:28:04.284Z,4.13
2023-06-17T21:30:35.920Z,4.45
2023-06-17T21:33:07.640Z,4.55
2023-06-17T21:35:39.339Z,2.67
2023-06-17T21:38:11.206Z,3.05
2023-06-17T21:40:42.765Z,2.53
2023-06-17T21:43:14.494Z,5.65
2023-06-17T21:45:46.202Z,3.30
2023-06-17T21:48:18.154Z,3.72
2023-06-17T21:50:49.831Z,3.30
2023-06-17T21:53:21.449Z,3.13
2023-06-17T21:55:53.181Z,4.78
2023-06-17T21:58:24.810Z,2.92
2023-06-17T22:00:56.424Z,3.10
2023-06-17T22:03:28.130Z,3.28
2023-06-17T22:05:59.938Z,3.03
2023-06-17T22:08:42.204Z,5.28
2023-06-17T22:11:15.600Z,2.40
2023-06-17T22:13:47.351Z,2.70
2023-06-17T22:16:19.387Z,2.45
2023-06-17T22:18:51.636Z,2.90
2023-06-17T22:21:23.841Z,2.65
2023-06-17T22:23:56.599Z,2.97
2023-06-17T22:26:28.814Z,2.78
2023-06-17T22:29:00.468Z,2.83
2023-06-17T22:31:32.096Z,3.30
2023-06-17T22:34:03.704Z,2.90
2023-06-17T22:36:35.721Z,4.50
2023-06-17T22:39:07.279Z,2.55
2023-06-17T22:41:39.012Z,2.53
2023-06-17T22:44:10.700Z,2.58
2023-06-17T22:46:42.394Z,2.10
2023-06-17T22:49:14.096Z,3.30
2023-06-17T22:51:45.740Z,2.67
2023-06-17T22:54:17.545Z,3.30
2023-06-17T22:56:49.210Z,2.40
2023-06-17T22:59:21.226Z,3.10
2023-06-17T23:01:52.931Z,2.47
2023-06-17T23:04:24.573Z,2.35
2023-06-17T23:06:56.136Z,2.78
2023-06-17T23:09:27.757Z,2.80
2023-06-17T23:11:59.389Z,2.70
2023-06-17T23:14:31.180Z,2.67
2023-06-17T23:17:02.875Z,4.25
2023-06-17T23:19:34.490Z,2.15
2023-06-17T23:22:06.339Z,2.15
2023-06-17T23:24:39.041Z,2.72
2023-06-17T23:27:10.989Z,2.13
2023-06-17T23:29:42.616Z,2.42
2023-06-17T23:32:14.238Z,2.90
2023-06-17T23:34:45.845Z,2.40
2023-06-17T23:37:19.116Z,2.20
2023-06-17T23:39:50.828Z,2.88
2023-06-17T23:42:22.375Z,2.65
2023-06-17T23:44:54.093Z,2.38
2023-06-17T23:47:26.031Z,2.20
2023-06-17T23:49:57.700Z,2.65
2023-06-17T23:52:29.259Z,2.70
2023-06-17T23:55:02.452Z,2.22
2023-06-17T23:57:34.333Z,2.38
